createdAt,value
2023-04-20T00:01:11.441Z,68.49
2023-04-20T00:03:38.899Z,68.38
2023-04-20T00:06:06.248Z,69.95
2023-04-20T00:08:33.415Z,69.29
2023-04-20T00:11:00.487Z,68.81
2023-04-20T00:13:27.795Z,68.77
2023-04-20T00:15:54.940Z,68.95
2023-04-20T00:18:22.088Z,69.72
2023-04-20T00:20:49.152Z,69.25
2023-04-20T00:23:16.390Z,70.04
2023-04-20T00:25:43.504Z,69.62
2023-04-20T00:28:10.721Z,70.29
2023-04-20T00:30:37.864Z,70.05
2023-04-20T00:33:04.959Z,70.36
2023-04-20T00:35:32.103Z,70.47
2023-04-20T00:37:59.023Z,71.49
2023-04-20T00:40:26.044Z,71.19
2023-04-20T00:42:53.013Z,71.70
2023-04-20T00:45:22.414Z,71.66
2023-04-20T00:47:49.587Z,72.28
2023-04-20T00:50:16.577Z,73.02
2023-04-20T00:52:43.586Z,73.17
2023-04-20T00:55:10.758Z,73.96
2023-04-20T00:57:37.824Z,73.92
2023-04-20T01:00:07.137Z,73.93
2023-04-20T01:02:34.208Z,74.21
2023-04-20T01:05:02.152Z,74.51
2023-04-20T01:07:30.529Z,75.01
2023-04-20T01:09:57.517Z,75.34
2023-04-20T01:12:24.493Z,75.41
2023-04-20T01:14:51.542Z,75.56
2023-04-20T01:17:18.712Z,76.13
2023-04-20T01:19:45.669Z,76.08
2023-04-20T01:22:15.673Z,76.49
2023-04-20T01:24:42.645Z,77.00
2023-04-20T01:27:09.628Z,77.08
2023-04-20T01:29:36.578Z,77.31
2023-04-20T01:32:03.679Z,77.69
2023-04-20T01:34:30.713Z,77.80
2023-04-20T01:36:57.614Z,77.97
2023-04-20T01:39:24.689Z,78.34
2023-04-20T01:41:51.884Z,78.56
2023-04-20T01:44:18.841Z,79.44
2023-04-20T01:46:45.836Z,78.88
2023-04-20T01:49:12.868Z,79.00
2023-04-20T01:51:39.801Z,78.94
2023-04-20T01:54:06.932Z,79.05
2023-04-20T01:56:34.017Z,79.14
2023-04-20T01:59:00.941Z,79.17
2023-04-20T02:01:27.954Z,78.90
2023-04-20T02:03:54.956Z,79.28
2023-04-20T02:06:21.987Z,79.10
2023-04-20T02:08:48.922Z,79.36
2023-04-20T02:11:15.949Z,79.60
2023-04-20T02:13:42.920Z,80.19
2023-04-20T02:16:09.949Z,80.38
2023-04-20T02:18:37.675Z,80.71
2023-04-20T02:21:06.375Z,80.45
2023-04-20T02:23:33.408Z,80.00
2023-04-20T02:26:00.335Z,79.72
2023-04-20T02:28:27.317Z,79.98
2023-04-20T02:30:54.384Z,80.38
2023-04-20T02:33:22.176Z,80.52
2023-04-20T02:35:49.373Z,80.38
2023-04-20T02:38:16.354Z,80.74
2023-04-20T02:40:43.346Z,80.43
2023-04-20T02:43:10.492Z,80.48
2023-04-20T02:45:37.448Z,80.67
2023-04-20T02:48:04.664Z,80.91
2023-04-20T02:50:31.607Z,81.05
2023-04-20T02:52:58.597Z,81.02
2023-04-20T02:55:25.529Z,81.78
2023-04-20T02:57:52.582Z,81.06
2023-04-20T03:00:20.047Z,81.32
2023-04-20T03:02:47.312Z,80.94
2023-04-20T03:05:14.528Z,81.10
2023-04-20T03:07:41.467Z,81.30
2023-04-20T03:10:09.435Z,81.25
2023-04-20T03:12:36.401Z,80.81
2023-04-20T03:15:05.553Z,81.47
2023-04-20T03:17:32.600Z,80.90
2023-04-20T03:19:59.546Z,81.10
2023-04-20T03:22:27.160Z,80.85
2023-04-20T03:24:54.386Z,80.92
2023-04-20T03:27:21.368Z,81.05
2023-04-20T03:29:49.192Z,81.05
2023-04-20T03:32:16.159Z,81.53
2023-04-20T03:34:43.307Z,81.79
2023-04-20T03:37:10.261Z,81.93
2023-04-20T03:39:37.272Z,81.38
2023-04-20T03:42:04.527Z,80.37
2023-04-20T03:44:31.458Z,80.60
2023-04-20T03:46:58.366Z,80.65
2023-04-20T03:49:25.930Z,81.02
2023-04-20T03:51:52.963Z,81.30
2023-04-20T03:54:20.006Z,81.25
2023-04-20T03:56:46.958Z,80.60
2023-04-20T03:59:13.993Z,80.71
2023-04-20T04:01:41.060Z,81.36
2023-04-20T04:04:08.243Z,81.24
2023-04-20T04:06:35.871Z,81.60
2023-04-20T04:09:02.855Z,81.39
2023-04-20T04:11:30.581Z,80.47
2023-04-20T04:13:59.667Z,80.20
2023-04-20T04:16:26.781Z,81.47
2023-04-20T04:18:53.863Z,80.51
2023-04-20T04:21:21.330Z,80.79
2023-04-20T04:23:48.292Z,80.67
2023-04-20T04:26:15.324Z,80.92
2023-04-20T04:28:42.317Z,80.45
2023-04-20T04:31:10.141Z,81.30
2023-04-20T04:33:37.140Z,79.55
2023-04-20T04:36:04.876Z,79.61
2023-04-20T04:38:33.727Z,79.35
2023-04-20T04:41:00.977Z,79.94
2023-04-20T04:43:27.918Z,79.64
2023-04-20T04:45:55.856Z,79.63
2023-04-20T04:48:23.680Z,79.25
2023-04-20T04:50:50.606Z,78.86
2023-04-20T04:53:17.679Z,78.96
2023-04-20T04:55:44.586Z,79.08
2023-04-20T04:58:11.838Z,79.41
2023-04-20T05:00:38.777Z,77.85
2023-04-20T05:03:05.849Z,77.90
2023-04-20T05:05:33.208Z,78.06
2023-04-20T05:08:00.426Z,77.47
2023-04-20T05:10:27.459Z,77.38
2023-04-20T05:12:54.483Z,76.64
2023-04-20T05:15:21.495Z,77.14
2023-04-20T05:17:50.102Z,76.59
2023-04-20T05:20:17.160Z,76.60
2023-04-20T05:22:44.281Z,76.23
2023-04-20T05:25:13.890Z,76.22
2023-04-20T05:27:41.207Z,76.52
2023-04-20T05:30:19.478Z,76.53
2023-04-20T05:32:51.182Z,76.20
2023-04-20T05:35:22.039Z,76.31
2023-04-20T05:37:49.145Z,77.56
2023-04-20T05:40:16.288Z,75.70
2023-04-20T05:42:43.471Z,76.09
2023-04-20T05:45:11.032Z,75.88
2023-04-20T05:47:38.061Z,74.43
2023-04-20T05:50:05.500Z,75.04
2023-04-20T05:52:32.494Z,74.89
2023-04-20T05:55:00.425Z,75.24
2023-04-20T05:57:27.425Z,74.19
2023-04-20T05:59:56.299Z,74.91
2023-04-20T06:02:23.418Z,74.54
2023-04-20T06:04:50.722Z,73.96
2023-04-20T06:07:17.966Z,74.55
2023-04-20T06:09:44.917Z,72.81
2023-04-20T06:12:12.043Z,73.00
2023-04-20T06:14:39.123Z,72.36
2023-04-20T06:17:06.526Z,73.33
2023-04-20T06:19:33.542Z,73.91
2023-04-20T06:22:01.259Z,72.04
2023-04-20T06:24:28.361Z,71.37
2023-04-20T06:26:55.360Z,71.43
2023-04-20T06:29:22.336Z,70.71
2023-04-20T06:31:49.372Z,71.09
2023-04-20T06:34:17.017Z,70.59
2023-04-20T06:36:44.363Z,69.55
2023-04-20T06:39:12.733Z,66.41
2023-04-20T06:41:39.922Z,65.56
2023-04-20T06:44:07.233Z,65.18
2023-04-20T06:46:34.423Z,63.48
2023-04-20T06:49:02.001Z,62.60
2023-04-20T06:51:29.759Z,63.02
2023-04-20T06:53:57.103Z,61.18
2023-04-20T06:56:24.292Z,59.97
2023-04-20T06:58:51.439Z,60.28
2023-04-20T07:01:18.610Z,60.33
2023-04-20T07:03:47.365Z,57.45
2023-04-20T07:06:14.847Z,57.74
2023-04-20T07:08:42.167Z,56.39
2023-04-20T07:11:09.277Z,56.52
2023-04-20T07:13:36.299Z,57.40
2023-04-20T07:16:03.726Z,56.28
2023-04-20T07:18:33.357Z,56.67
2023-04-20T07:21:02.405Z,58.30
2023-04-20T07:23:29.806Z,59.42
2023-04-20T07:25:57.336Z,60.50
2023-04-20T07:28:24.490Z,61.64
2023-04-20T07:30:52.017Z,63.05
2023-04-20T07:33:19.219Z,63.22
2023-04-20T07:35:47.167Z,63.36
2023-04-20T07:38:16.202Z,64.23
2023-04-20T07:40:43.474Z,63.63
2023-04-20T07:43:10.598Z,62.51
2023-04-20T07:45:39.886Z,61.21
2023-04-20T07:48:07.160Z,58.58
2023-04-20T07:50:34.236Z,57.61
2023-04-20T07:53:01.425Z,52.20
2023-04-20T07:55:28.540Z,48.67
2023-04-20T07:57:59.787Z,47.60
2023-04-20T08:00:27.437Z,46.73
2023-04-20T08:02:54.819Z,46.23
2023-04-20T08:05:23.086Z,43.24
2023-04-20T08:07:50.393Z,41.07
2023-04-20T08:10:17.659Z,42.29
2023-04-20T08:12:44.934Z,42.99
2023-04-20T08:15:12.245Z,43.28
2023-04-20T08:17:39.361Z,42.32
2023-04-20T08:20:07.180Z,43.13
2023-04-20T08:22:34.550Z,44.50
2023-04-20T08:25:01.592Z,44.40
2023-04-20T08:27:31.006Z,45.03
2023-04-20T08:29:58.309Z,46.38
2023-04-20T08:32:27.231Z,48.13
2023-04-20T08:34:54.956Z,48.48
2023-04-20T08:37:22.094Z,47.62
2023-04-20T08:39:49.162Z,48.24
2023-04-20T08:42:17.522Z,47.43
2023-04-20T08:44:44.673Z,47.51
2023-04-20T08:47:12.538Z,46.94
2023-04-20T08:49:41.036Z,47.65
2023-04-20T08:52:11.509Z,47.31
2023-04-20T08:54:45.947Z,48.43
2023-04-20T08:57:16.738Z,48.41
2023-04-20T08:59:43.977Z,48.84
2023-04-20T09:02:12.939Z,48.73
2023-04-20T09:04:41.402Z,48.78
2023-04-20T09:07:17.721Z,46.68
2023-04-20T09:09:52.451Z,45.79
2023-04-20T09:12:21.617Z,46.19
2023-04-20T09:14:49.796Z,45.35
2023-04-20T09:17:18.230Z,45.13
2023-04-20T09:19:46.297Z,45.25
2023-04-20T09:22:13.402Z,44.38
2023-04-20T09:24:41.681Z,44.69
2023-04-20T09:27:12.016Z,44.88
2023-04-20T09:29:39.210Z,43.80
2023-04-20T09:32:06.545Z,41.96
2023-04-20T09:34:44.291Z,41.99
2023-04-20T09:37:15.210Z,40.50
2023-04-20T09:39:43.539Z,40.30
2023-04-20T09:42:13.316Z,40.41
2023-04-20T09:44:41.014Z,39.76
2023-04-20T09:47:09.209Z,39.56
2023-04-20T09:49:36.267Z,39.75
2023-04-20T09:52:04.505Z,38.90
2023-04-20T09:54:32.097Z,38.71
2023-04-20T09:57:00.448Z,38.90
2023-04-20T09:59:28.276Z,38.68
2023-04-20T10:01:55.563Z,39.25
2023-04-20T10:04:23.321Z,39.17
2023-04-20T10:06:53.606Z,40.09
2023-04-20T10:09:23.031Z,40.09
2023-04-20T10:11:54.084Z,39.84
2023-04-20T10:14:23.668Z,39.47
2023-04-20T10:16:54.118Z,39.38
2023-04-20T10:19:21.459Z,39.72
2023-04-20T10:21:49.543Z,38.81
2023-04-20T10:24:19.615Z,39.35
2023-04-20T10:26:47.700Z,38.63
2023-04-20T10:29:17.917Z,39.00
2023-04-20T10:31:45.016Z,38.46
2023-04-20T10:34:12.162Z,38.28
2023-04-20T10:36:39.581Z,37.86
2023-04-20T10:39:09.946Z,37.71
2023-04-20T10:41:37.596Z,37.41
2023-04-20T10:44:08.248Z,37.99
2023-04-20T10:46:35.476Z,38.58
2023-04-20T10:49:02.805Z,38.38
2023-04-20T10:51:30.479Z,38.59
2023-04-20T10:53:59.672Z,39.50
2023-04-20T10:56:27.548Z,39.70
2023-04-20T10:58:54.985Z,38.83
2023-04-20T11:01:22.480Z,39.20
2023-04-20T11:03:51.812Z,38.67
2023-04-20T11:06:19.110Z,39.10
2023-04-20T11:08:47.052Z,39.72
2023-04-20T11:11:17.355Z,39.57
2023-04-20T11:13:44.480Z,38.33
2023-04-20T11:16:12.947Z,38.14
2023-04-20T11:18:43.212Z,38.63
2023-04-20T11:21:10.413Z,38.88
2023-04-20T11:23:38.860Z,38.58
2023-04-20T11:26:06.109Z,39.22
2023-04-20T11:28:35.004Z,38.34
2023-04-20T11:31:02.477Z,39.22
2023-04-20T11:33:30.171Z,39.38
2023-04-20T11:35:58.297Z,39.30
2023-04-20T11:38:28.636Z,39.92
2023-04-20T11:40:56.503Z,39.18
2023-04-20T11:43:23.870Z,39.77
2023-04-20T11:45:50.975Z,39.95
2023-04-20T11:48:19.324Z,39.76
2023-04-20T11:50:46.628Z,39.85
2023-04-20T11:53:15.428Z,39.08
2023-04-20T11:55:42.590Z,38.83
2023-04-20T11:58:09.870Z,38.70
2023-04-20T12:00:37.339Z,38.62
2023-04-20T12:03:04.686Z,38.36
2023-04-20T12:05:32.044Z,38.51
2023-04-20T12:07:59.075Z,38.17
2023-04-20T12:10:26.253Z,38.16
2023-04-20T12:12:54.147Z,38.10
2023-04-20T12:15:21.429Z,36.80
2023-04-20T12:17:48.762Z,36.78
2023-04-20T12:20:15.926Z,36.78
2023-04-20T12:22:43.320Z,35.95
2023-04-20T12:25:10.581Z,36.21
2023-04-20T12:27:37.937Z,36.43
2023-04-20T12:30:05.389Z,35.90
2023-04-20T12:32:32.674Z,36.16
2023-04-20T12:35:00.000Z,36.03
2023-04-20T12:37:27.877Z,36.22
2023-04-20T12:39:55.229Z,35.46
2023-04-20T12:42:22.615Z,36.12
2023-04-20T12:44:49.597Z,35.00
2023-04-20T12:47:17.150Z,34.74
2023-04-20T12:49:44.364Z,34.51
2023-04-20T12:52:11.736Z,34.87
2023-04-20T12:54:39.087Z,35.49
2023-04-20T12:57:06.449Z,34.74
2023-04-20T12:59:33.642Z,35.64
2023-04-20T13:02:01.169Z,34.38
2023-04-20T13:04:28.536Z,34.21
2023-04-20T13:06:56.321Z,34.22
2023-04-20T13:09:27.497Z,34.38
2023-04-20T13:11:55.000Z,34.19
2023-04-20T13:14:22.195Z,34.01
2023-04-20T13:16:49.627Z,33.66
2023-04-20T13:19:17.141Z,34.15
2023-04-20T13:21:44.229Z,34.32
2023-04-20T13:24:11.569Z,33.53
2023-04-20T13:26:38.834Z,34.34
2023-04-20T13:29:05.980Z,33.58
2023-04-20T13:31:34.046Z,33.77
2023-04-20T13:34:01.724Z,34.43
2023-04-20T13:36:28.996Z,35.21
2023-04-20T13:38:56.796Z,35.61
2023-04-20T13:41:24.340Z,34.92
2023-04-20T13:43:52.057Z,33.93
2023-04-20T13:46:20.552Z,34.22
2023-04-20T13:48:47.886Z,34.63
2023-04-20T13:51:14.835Z,34.29
2023-04-20T13:53:49.050Z,34.70
2023-04-20T13:56:17.003Z,34.66
2023-04-20T13:58:44.204Z,33.59
2023-04-20T14:01:13.576Z,33.85
2023-04-20T14:03:42.285Z,32.75
2023-04-20T14:06:09.798Z,32.54
2023-04-20T14:08:37.523Z,32.87
2023-04-20T14:11:05.028Z,33.52
2023-04-20T14:13:32.681Z,31.00
2023-04-20T14:16:00.018Z,30.30
2023-04-20T14:18:27.636Z,31.14
2023-04-20T14:20:55.404Z,29.61
2023-04-20T14:23:22.527Z,28.28
2023-04-20T14:25:50.098Z,28.97
2023-04-20T14:28:18.290Z,29.13
2023-04-20T14:30:46.495Z,28.93
2023-04-20T14:33:13.742Z,28.91
2023-04-20T14:35:41.244Z,29.18
2023-04-20T14:38:08.415Z,30.14
2023-04-20T14:40:35.894Z,30.66
2023-04-20T14:43:03.121Z,31.14
2023-04-20T14:45:30.366Z,30.81
2023-04-20T14:47:57.713Z,30.84
2023-04-20T14:50:28.051Z,32.23
2023-04-20T14:52:55.881Z,33.57
2023-04-20T14:55:25.339Z,33.26
2023-04-20T14:57:55.894Z,32.98
2023-04-20T15:00:25.051Z,33.18
2023-04-20T15:02:53.894Z,33.79
2023-04-20T15:05:21.705Z,34.37
2023-04-20T15:07:51.238Z,34.56
2023-04-20T15:10:19.969Z,35.02
2023-04-20T15:12:48.126Z,35.68
2023-04-20T15:15:15.927Z,35.63
2023-04-20T15:17:43.144Z,36.08
2023-04-20T15:20:10.523Z,37.08
2023-04-20T15:22:37.928Z,37.91
2023-04-20T15:25:06.017Z,38.51
2023-04-20T15:27:33.485Z,38.64
2023-04-20T15:30:01.103Z,39.17
2023-04-20T15:32:30.732Z,39.62
2023-04-20T15:34:57.908Z,39.81
2023-04-20T15:37:25.256Z,40.31
2023-04-20T15:39:56.458Z,40.79
2023-04-20T15:42:23.725Z,41.44
2023-04-20T15:44:51.159Z,41.98
2023-04-20T15:47:18.367Z,42.37
2023-04-20T15:49:45.723Z,43.00
2023-04-20T15:52:13.122Z,44.62
2023-04-20T15:54:40.705Z,44.72
2023-04-20T15:57:07.974Z,45.45
2023-04-20T15:59:35.421Z,45.87
2023-04-20T16:02:03.357Z,46.82
2023-04-20T16:04:31.173Z,47.31
2023-04-20T16:06:58.470Z,47.99
2023-04-20T16:09:25.886Z,49.09
2023-04-20T16:11:53.422Z,49.97
2023-04-20T16:14:21.121Z,50.67
2023-04-20T16:16:48.892Z,51.93
2023-04-20T16:19:16.336Z,54.30
2023-04-20T16:21:44.032Z,55.50
2023-04-20T16:24:11.389Z,56.42
2023-04-20T16:26:39.582Z,57.37
2023-04-20T16:29:09.101Z,60.10
2023-04-20T16:31:37.864Z,62.80
2023-04-20T16:34:05.516Z,65.07
2023-04-20T16:36:34.532Z,68.49
2023-04-20T16:39:05.978Z,69.78
2023-04-20T16:41:33.377Z,71.02
2023-04-20T16:44:00.979Z,73.00
2023-04-20T16:46:28.483Z,74.43
2023-04-20T16:48:56.297Z,76.28
2023-04-20T16:51:23.586Z,77.19
2023-04-20T16:53:51.578Z,77.91
2023-04-20T16:56:19.257Z,79.06
2023-04-20T16:58:46.897Z,80.15
2023-04-20T17:01:15.555Z,80.19
2023-04-20T17:03:44.709Z,79.73
2023-04-20T17:06:12.098Z,81.03
2023-04-20T17:08:39.775Z,80.44
2023-04-20T17:11:07.202Z,80.88
2023-04-20T17:13:35.025Z,82.21
2023-04-20T17:16:06.131Z,83.30
2023-04-20T17:18:35.746Z,82.17
2023-04-20T17:21:03.212Z,83.44
2023-04-20T17:23:30.397Z,84.01
2023-04-20T17:26:01.697Z,84.94
2023-04-20T17:28:31.237Z,85.38
2023-04-20T17:30:59.091Z,87.85
2023-04-20T17:33:30.939Z,86.12
2023-04-20T17:35:59.002Z,87.20
2023-04-20T17:38:26.482Z,87.74
2023-04-20T17:40:54.076Z,86.54
2023-04-20T17:43:21.570Z,86.63
2023-04-20T17:45:50.842Z,86.47
2023-04-20T17:48:18.396Z,86.71
2023-04-20T17:50:52.772Z,86.17
2023-04-20T17:53:20.700Z,86.55
2023-04-20T17:55:48.311Z,86.20
2023-04-20T17:58:16.125Z,86.76
2023-04-20T18:00:43.993Z,88.38
2023-04-20T18:03:12.264Z,87.51
2023-04-20T18:05:39.668Z,87.14
2023-04-20T18:08:06.844Z,87.19
2023-04-20T18:10:34.883Z,88.00
2023-04-20T18:13:02.438Z,85.04
2023-04-20T18:15:29.647Z,85.93
2023-04-20T18:17:57.078Z,86.88
2023-04-20T18:20:24.477Z,85.54
2023-04-20T18:22:52.866Z,85.62
2023-04-20T18:25:20.522Z,86.40
2023-04-20T18:27:47.825Z,84.67
2023-04-20T18:30:15.100Z,84.44
2023-04-20T18:32:42.573Z,84.86
2023-04-20T18:35:10.132Z,83.96
2023-04-20T18:37:37.974Z,85.24
2023-04-20T18:40:06.526Z,85.85
2023-04-20T18:42:33.532Z,84.85
2023-04-20T18:45:00.942Z,84.53
2023-04-20T18:47:28.132Z,84.34
2023-04-20T18:49:55.893Z,84.95
2023-04-20T18:52:23.590Z,85.20
2023-04-20T18:54:50.931Z,84.16
2023-04-20T18:57:18.532Z,84.26
2023-04-20T18:59:45.831Z,83.53
2023-04-20T19:02:14.017Z,84.29
2023-04-20T19:04:41.641Z,83.86
2023-04-20T19:07:09.168Z,83.67
2023-04-20T19:09:37.647Z,83.71
2023-04-20T19:12:04.930Z,83.84
2023-04-20T19:14:31.905Z,83.61
2023-04-20T19:16:59.205Z,83.95
2023-04-20T19:19:26.362Z,83.75
2023-04-20T19:21:54.351Z,84.50
2023-04-20T19:24:21.700Z,83.98
2023-04-20T19:26:49.069Z,84.24
2023-04-20T19:29:16.528Z,84.82
2023-04-20T19:31:43.591Z,85.18
2023-04-20T19:34:13.793Z,84.91
2023-04-20T19:36:41.584Z,84.38
2023-04-20T19:39:09.068Z,84.10
2023-04-20T19:41:36.123Z,84.00
2023-04-20T19:44:06.683Z,83.75
2023-04-20T19:46:34.486Z,83.59
2023-04-20T19:49:02.043Z,84.83
2023-04-20T19:51:29.480Z,84.27
2023-04-20T19:53:56.961Z,83.84
2023-04-20T19:56:24.061Z,84.06
2023-04-20T19:58:51.159Z,84.55
2023-04-20T20:01:18.383Z,84.25
2023-04-20T20:03:45.775Z,84.61
2023-04-20T20:06:12.826Z,84.93
2023-04-20T20:08:39.716Z,85.40
2023-04-20T20:11:06.667Z,85.68
2023-04-20T20:13:33.458Z,85.44
2023-04-20T20:16:00.763Z,85.37
2023-04-20T20:18:27.958Z,85.05
2023-04-20T20:20:55.148Z,86.23
2023-04-20T20:23:22.144Z,85.61
2023-04-20T20:25:49.097Z,85.23
2023-04-20T20:28:16.311Z,86.02
2023-04-20T20:30:45.541Z,86.66
2023-04-20T20:33:13.654Z,86.12
2023-04-20T20:35:41.180Z,86.91
2023-04-20T20:38:08.231Z,86.04
2023-04-20T20:40:35.488Z,85.55
2023-04-20T20:43:02.529Z,85.27
2023-04-20T20:45:29.639Z,84.56
2023-04-20T20:47:56.661Z,85.70
2023-04-20T20:50:23.730Z,86.71
2023-04-20T20:52:50.722Z,85.88
2023-04-20T20:55:17.647Z,85.60
2023-04-20T20:57:44.740Z,85.49
2023-04-20T21:00:12.428Z,85.45
2023-04-20T21:02:39.380Z,84.04
2023-04-20T21:05:06.817Z,83.80
2023-04-20T21:07:33.822Z,85.13
2023-04-20T21:10:00.647Z,85.45
2023-04-20T21:12:27.499Z,84.35
2023-04-20T21:14:54.434Z,83.27
2023-04-20T21:17:21.430Z,83.15
2023-04-20T21:19:48.280Z,84.18
2023-04-20T21:22:15.399Z,83.97
2023-04-20T21:24:42.324Z,84.16
2023-04-20T21:27:09.529Z,83.02
2023-04-20T21:29:36.683Z,83.51
2023-04-20T21:32:03.724Z,83.70
2023-04-20T21:34:30.895Z,82.61
2023-04-20T21:37:03.974Z,83.36
2023-04-20T21:39:31.185Z,83.77
2023-04-20T21:41:59.312Z,84.10
2023-04-20T21:44:26.615Z,84.14
2023-04-20T21:46:53.669Z,84.30
2023-04-20T21:49:21.380Z,83.79
2023-04-20T21:51:48.332Z,83.92
2023-04-20T21:54:15.346Z,83.97
2023-04-20T21:56:42.215Z,83.50
2023-04-20T21:59:09.181Z,82.55
2023-04-20T22:01:36.111Z,82.33
2023-04-20T22:04:03.323Z,82.38
2023-04-20T22:06:32.266Z,82.39
2023-04-20T22:08:59.126Z,83.30
2023-04-20T22:11:26.411Z,83.49
2023-04-20T22:13:53.280Z,82.89
2023-04-20T22:16:21.574Z,83.22
2023-04-20T22:18:49.495Z,82.95
2023-04-20T22:21:16.840Z,84.15
2023-04-20T22:23:43.848Z,84.55
2023-04-20T22:26:11.000Z,84.25
2023-04-20T22:28:38.251Z,84.05
2023-04-20T22:31:05.324Z,83.29
2023-04-20T22:33:32.233Z,83.61
2023-04-20T22:35:59.173Z,83.77
2023-04-20T22:38:26.221Z,82.45
2023-04-20T22:40:54.030Z,82.58
2023-04-20T22:43:21.999Z,83.08
2023-04-20T22:45:49.182Z,83.38
2023-04-20T22:48:16.274Z,83.57
2023-04-20T22:50:43.143Z,84.03
2023-04-20T22:53:10.021Z,84.45
2023-04-20T22:55:36.889Z,84.08
2023-04-20T22:58:03.683Z,83.71
2023-04-20T23:00:30.616Z,84.35
2023-04-20T23:03:00.111Z,84.96
2023-04-20T23:05:29.306Z,84.54
2023-04-20T23:07:56.782Z,85.00
2023-04-20T23:10:28.860Z,85.36
2023-04-20T23:12:55.924Z,85.35
2023-04-20T23:15:23.187Z,85.50
2023-04-20T23:17:51.115Z,85.77
2023-04-20T23:20:18.116Z,85.63
2023-04-20T23:22:45.070Z,87.80
2023-04-20T23:25:11.980Z,86.14
2023-04-20T23:27:38.733Z,85.52
2023-04-20T23:30:06.987Z,87.00
2023-04-20T23:32:33.943Z,86.10
2023-04-20T23:35:00.863Z,86.46
2023-04-20T23:37:27.745Z,85.92
2023-04-20T23:39:54.516Z,86.26
2023-04-20T23:42:21.336Z,86.07
2023-04-20T23:44:48.181Z,85.33
2023-04-20T23:47:15.995Z,85.90
2023-04-20T23:49:42.986Z,86.96
2023-04-20T23:52:09.862Z,86.55
2023-04-20T23:54:36.795Z,86.25
2023-04-20T23:57:03.749Z,86.38
2023-04-20T23:59:30.555Z,85.89
